Time;durP1;ratioP1;P1;durP2;ratioP2;P2;SDS_P1;SDS_P2;PMS_P1;PMS_P2;Temp;Humidity;BMP_temperature;BMP_pressure;BME280_temperature;BME280_humidity;BME280_pressure;Samples;Min_cycle;Max_cycle;Signal;HPM_P1;HPM_P2
2021/06/11 00:01:04;;;;;;;0.60;0.40;;;;;;;16.95;95.04;100492.88;4979668;28;20527;-50
2021/06/11 00:03:30;;;;;;;0.50;0.40;;;;;;;16.89;95.10;100486.00;4993795;28;20485;-51
2021/06/11 00:05:57;;;;;;;0.40;0.30;;;;;;;16.67;97.83;100488.91;4989036;28;20451;-51
2021/06/11 00:08:25;;;;;;;0.40;0.20;;;;;;;16.72;96.23;100492.25;4986275;28;20881;-50
2021/06/11 00:10:52;;;;;;;0.40;0.20;;;;;;;16.69;96.82;100495.06;4994553;28;20456;-51
2021/06/11 00:13:19;;;;;;;0.40;0.20;;;;;;;16.62;96.95;100496.31;4982337;28;20462;-51
2021/06/11 00:15:46;;;;;;;0.50;0.30;;;;;;;16.64;96.85;100494.41;4992955;28;20465;-51
2021/06/11 00:18:13;;;;;;;2.40;0.80;;;;;;;16.73;96.06;100502.03;4994571;28;20478;-51
2021/06/11 00:20:39;;;;;;;0.50;0.40;;;;;;;16.62;96.71;100503.47;4981176;28;20453;-51
2021/06/11 00:23:06;;;;;;;0.40;0.20;;;;;;;16.55;97.09;100510.97;4993583;28;21017;-50
2021/06/11 00:25:33;;;;;;;0.53;0.53;;;;;;;16.59;97.40;100507.19;4980677;28;20936;-51
2021/06/11 00:28:01;;;;;;;0.40;0.30;;;;;;;16.67;97.06;100513.06;4982732;28;20481;-50
2021/06/11 00:30:29;;;;;;;0.40;0.30;;;;;;;16.55;97.48;100506.47;4997687;28;20966;-51
2021/06/11 00:32:57;;;;;;;0.40;0.20;;;;;;;16.67;96.48;100513.06;4988749;28;20830;-51
2021/06/11 00:35:25;;;;;;;0.50;0.40;;;;;;;16.52;97.47;100511.13;4984247;28;20971;-51
2021/06/11 00:37:51;;;;;;;0.40;0.20;;;;;;;16.59;98.06;100515.25;4976689;28;20533;-51
2021/06/11 00:40:19;;;;;;;0.97;0.63;;;;;;;16.55;97.34;100516.31;4993668;28;20504;-51
2021/06/11 00:42:46;;;;;;;0.50;0.50;;;;;;;16.64;96.96;100510.50;4979023;28;20457;-51
2021/06/11 00:45:14;;;;;;;0.40;0.30;;;;;;;16.59;96.48;100507.19;4984564;28;20494;-51
2021/06/11 00:47:40;;;;;;;0.50;0.40;;;;;;;16.32;97.87;100508.56;4989578;28;20581;-51
2021/06/11 00:50:08;;;;;;;0.40;0.20;;;;;;;16.29;98.16;100506.88;4993560;28;20547;-51
2021/06/11 00:52:35;;;;;;;3.00;2.73;;;;;;;16.31;98.39;100496.97;4980358;28;20950;-51
2021/06/11 00:55:02;;;;;;;0.43;0.27;;;;;;;16.29;98.34;100506.88;4993351;28;20453;-51
2021/06/11 00:57:29;;;;;;;1.37;1.23;;;;;;;16.29;98.44;100509.56;4976235;28;20481;-51
2021/06/11 00:59:56;;;;;;;0.40;0.20;;;;;;;16.14;99.68;100515.66;4983271;28;20790;-51
2021/06/11 01:02:23;;;;;;;0.87;0.87;;;;;;;16.25;98.47;100508.84;4989430;28;20959;-51
2021/06/11 01:04:50;;;;;;;0.50;0.40;;;;;;;16.29;98.65;100515.78;4985653;28;20915;-51
2021/06/11 01:07:19;;;;;;;0.40;0.20;;;;;;;16.12;99.49;100512.19;4989248;28;20477;-50
2021/06/11 01:09:46;;;;;;;0.40;0.20;;;;;;;16.14;99.43;100513.84;4984006;28;20626;-51
2021/06/11 01:12:14;;;;;;;0.50;0.30;;;;;;;16.13;99.18;100521.97;4979965;28;20481;-51
2021/06/11 01:14:42;;;;;;;0.40;0.20;;;;;;;16.05;99.61;100516.97;4981603;28;20450;-51
2021/06/11 01:17:10;;;;;;;0.50;0.30;;;;;;;15.95;100.00;100502.25;4991674;28;20527;-51
2021/06/11 01:19:45;;;;;;;0.40;0.20;;;;;;;16.13;99.50;100516.59;4981109;28;20479;-50
2021/06/11 01:22:24;;;;;;;0.40;0.20;;;;;;;16.13;99.48;100508.56;4980452;28;20491;-51
2021/06/11 01:25:06;;;;;;;0.60;0.50;;;;;;;16.27;98.14;100519.50;4993552;28;20496;-51
2021/06/11 01:27:34;;;;;;;0.40;0.20;;;;;;;16.37;97.22;100511.88;4984046;28;20465;-51
2021/06/11 01:30:15;;;;;;;0.40;0.20;;;;;;;16.34;97.12;100515.59;5001732;28;20630;-51
2021/06/11 01:32:44;;;;;;;0.40;0.30;;;;;;;16.19;98.26;100514.50;4985772;28;20935;-51
2021/06/11 01:35:21;;;;;;;0.40;0.27;;;;;;;16.00;99.29;100516.31;4986381;28;20517;-51
2021/06/11 01:37:53;;;;;;;0.40;0.20;;;;;;;15.96;99.57;100522.78;5002043;28;20473;-51
2021/06/11 01:40:21;;;;;;;0.50;0.30;;;;;;;15.89;100.00;100522.16;4982242;28;20449;-51
2021/06/11 01:42:49;;;;;;;0.40;0.30;;;;;;;15.77;100.00;100522.78;4991740;28;20508;-51
2021/06/11 01:45:17;;;;;;;0.40;0.20;;;;;;;15.92;100.00;100526.53;4983712;28;20490;-50
2021/06/11 01:47:52;;;;;;;0.50;0.33;;;;;;;15.93;100.00;100518.44;4986135;28;20991;-50
2021/06/11 01:50:23;;;;;;;0.40;0.20;;;;;;;15.94;100.00;100521.97;4983559;28;20488;-51
2021/06/11 01:52:53;;;;;;;2.63;1.30;;;;;;;16.05;100.00;100514.31;4975639;28;20513;-50
2021/06/11 01:55:20;;;;;;;0.40;0.30;;;;;;;15.94;100.00;100509.44;4984318;28;20460;-51
2021/06/11 01:57:48;;;;;;;0.80;0.80;;;;;;;15.97;100.00;100524.50;4979109;28;21051;-51
2021/06/11 02:00:17;;;;;;;0.40;0.20;;;;;;;15.86;100.00;100518.78;4992807;28;20453;-51
2021/06/11 02:02:46;;;;;;;0.40;0.20;;;;;;;15.78;100.00;100513.78;4979257;28;20520;-51
2021/06/11 02:05:14;;;;;;;0.50;0.50;;;;;;;15.88;100.00;100519.56;4992359;28;20493;-51
2021/06/11 02:07:43;;;;;;;3.03;1.27;;;;;;;15.78;100.00;100512.91;4987014;28;21061;-51
2021/06/11 02:10:12;;;;;;;0.40;0.30;;;;;;;15.82;100.00;100517.19;5000422;28;20950;-51
2021/06/11 02:12:40;;;;;;;0.50;0.50;;;;;;;15.83;100.00;100513.56;4985564;28;20931;-51
2021/06/11 02:15:09;;;;;;;5.60;2.40;;;;;;;15.83;100.00;100506.38;4985656;28;20449;-51
2021/06/11 02:17:42;;;;;;;0.53;0.50;;;;;;;15.78;100.00;100504.88;4979847;28;20892;-51
2021/06/11 02:20:12;;;;;;;0.40;0.20;;;;;;;16.03;99.84;100497.38;4992114;28;20453;-50
2021/06/11 02:22:42;;;;;;;0.40;0.20;;;;;;;15.98;99.85;100505.66;4992321;28;20530;-51
2021/06/11 02:25:10;;;;;;;0.40;0.20;;;;;;;15.84;100.00;100509.94;4989617;28;20486;-50
2021/06/11 02:27:38;;;;;;;0.40;0.23;;;;;;;15.62;100.00;100502.91;4982306;28;20483;-50
2021/06/11 02:30:08;;;;;;;0.40;0.20;;;;;;;15.80;100.00;100511.91;4999192;28;21120;-51
2021/06/11 02:32:35;;;;;;;0.40;0.20;;;;;;;15.69;100.00;100506.16;4972792;28;20458;-51
2021/06/11 02:35:04;;;;;;;0.50;0.40;;;;;;;15.48;100.00;100505.28;4977748;28;20449;-50
2021/06/11 02:37:31;;;;;;;0.40;0.20;;;;;;;15.58;100.00;100501.25;4992041;28;20485;-51
2021/06/11 02:39:58;;;;;;;0.40;0.20;;;;;;;15.59;100.00;100503.03;4986831;28;20553;-51
2021/06/11 02:42:27;;;;;;;0.40;0.20;;;;;;;15.50;100.00;100508.78;4984696;28;20528;-50
2021/06/11 02:45:01;;;;;;;0.40;0.20;;;;;;;15.19;100.00;100505.72;4972980;28;20496;-51
2021/06/11 02:47:49;;;;;;;0.40;0.20;;;;;;;15.24;100.00;100504.59;4966423;28;20517;-50
2021/06/11 02:50:21;;;;;;;0.40;0.20;;;;;;;15.29;100.00;100505.25;4983077;28;20942;-50
2021/06/11 02:52:51;;;;;;;0.40;0.20;;;;;;;15.43;100.00;100510.00;4987127;28;20469;-50
2021/06/11 02:55:21;;;;;;;0.40;0.30;;;;;;;15.33;100.00;100514.00;4988350;28;20475;-50
2021/06/11 02:57:52;;;;;;;0.40;0.20;;;;;;;15.29;100.00;100507.94;4982618;28;20471;-50
2021/06/11 03:00:20;;;;;;;0.40;0.30;;;;;;;15.24;100.00;100509.94;4983028;28;20450;-50
2021/06/11 03:02:52;;;;;;;0.40;0.20;;;;;;;15.26;100.00;100515.25;4976237;28;20485;-50
2021/06/11 03:05:21;;;;;;;0.40;0.20;;;;;;;15.38;100.00;100512.03;4988796;28;20500;-49
2021/06/11 03:07:53;;;;;;;0.40;0.30;;;;;;;15.25;100.00;100506.34;4983336;28;20990;-50
2021/06/11 03:10:28;;;;;;;0.40;0.20;;;;;;;15.26;100.00;100512.56;4982153;28;20565;-49
2021/06/11 03:12:58;;;;;;;0.50;0.37;;;;;;;15.45;100.00;100509.91;4985416;28;20447;-50
2021/06/11 03:15:29;;;;;;;0.40;0.30;;;;;;;15.47;100.00;100508.03;4989262;28;20591;-49
2021/06/11 03:18:00;;;;;;;0.40;0.20;;;;;;;15.26;100.00;100510.75;4986470;28;20548;-50
2021/06/11 03:20:32;;;;;;;0.40;0.30;;;;;;;15.27;100.00;100514.31;4990583;28;20501;-51
2021/06/11 03:23:14;;;;;;;0.40;0.20;;;;;;;15.00;100.00;100521.72;4987754;28;20450;-49
2021/06/11 03:25:46;;;;;;;0.40;0.20;;;;;;;15.04;100.00;100510.81;4992259;28;20567;-49
2021/06/11 03:28:26;;;;;;;0.40;0.30;;;;;;;15.04;100.00;100524.19;4984861;28;20470;-50
2021/06/11 03:30:56;;;;;;;0.50;0.30;;;;;;;15.24;100.00;100522.47;4992809;28;20446;-50
2021/06/11 03:33:27;;;;;;;0.40;0.20;;;;;;;15.47;100.00;100524.13;4993322;28;20449;-50
2021/06/11 03:36:15;;;;;;;0.50;0.43;;;;;;;15.36;100.00;100520.13;4982817;28;20442;-50
2021/06/11 03:38:46;;;;;;;0.40;0.20;;;;;;;15.49;100.00;100520.44;4985201;28;20450;-50
2021/06/11 03:41:13;;;;;;;0.40;0.20;;;;;;;15.40;100.00;100519.03;4981519;28;20532;-50
2021/06/11 03:43:41;;;;;;;1.93;1.80;;;;;;;15.33;100.00;100517.56;4985218;28;20450;-50
2021/06/11 03:46:10;;;;;;;0.40;0.20;;;;;;;15.42;100.00;100513.63;4991656;28;20608;-50
2021/06/11 03:48:38;;;;;;;0.40;0.30;;;;;;;15.37;100.00;100516.50;4994760;28;20481;-50
2021/06/11 03:51:07;;;;;;;0.40;0.20;;;;;;;15.43;100.00;100518.03;4981776;28;20449;-50
2021/06/11 03:53:38;;;;;;;0.40;0.20;;;;;;;15.28;100.00;100518.72;4983239;28;20462;-50
2021/06/11 03:56:08;;;;;;;0.83;0.83;;;;;;;15.28;100.00;100521.41;4988633;28;20450;-50
2021/06/11 03:58:46;;;;;;;0.40;0.20;;;;;;;15.32;100.00;100515.81;4987417;28;20501;-50
2021/06/11 04:01:24;;;;;;;0.40;0.20;;;;;;;15.56;100.00;100523.72;4975962;28;20517;-50
2021/06/11 04:03:53;;;;;;;1.67;1.57;;;;;;;15.51;100.00;100515.88;4988700;28;20446;-50
2021/06/11 04:06:26;;;;;;;0.40;0.30;;;;;;;15.65;100.00;100523.34;4983567;28;20501;-50
2021/06/11 04:08:59;;;;;;;0.73;0.73;;;;;;;15.63;100.00;100525.22;4981681;28;20935;-49
2021/06/11 04:11:29;;;;;;;0.40;0.20;;;;;;;15.53;100.00;100518.50;4984053;28;20513;-49
2021/06/11 04:13:59;;;;;;;0.40;0.20;;;;;;;15.67;100.00;100522.31;4993185;28;20462;-50
2021/06/11 04:16:33;;;;;;;0.40;0.30;;;;;;;15.72;100.00;100524.78;4981434;28;20509;-50
2021/06/11 04:19:02;;;;;;;0.40;0.20;;;;;;;15.98;100.00;100527.13;4994564;28;20471;-50
2021/06/11 04:21:34;;;;;;;0.40;0.30;;;;;;;16.06;100.00;100523.22;4981349;28;20578;-50
2021/06/11 04:24:07;;;;;;;0.50;0.40;;;;;;;15.81;100.00;100518.13;4986916;28;20446;-50
2021/06/11 04:26:37;;;;;;;0.40;0.20;;;;;;;16.03;100.00;100524.22;4987827;28;20579;-50
2021/06/11 04:29:08;;;;;;;0.40;0.20;;;;;;;16.39;100.00;100528.75;4994126;28;20507;-50
2021/06/11 04:31:35;;;;;;;0.40;0.20;;;;;;;17.36;96.90;100525.63;4984052;28;20952;-50
2021/06/11 04:34:02;;;;;;;0.77;0.67;;;;;;;18.04;92.81;100531.81;4984483;28;20505;-49
2021/06/11 04:36:29;;;;;;;0.40;0.20;;;;;;;18.36;89.88;100524.63;4987685;28;20512;-50
2021/06/11 04:38:57;;;;;;;2.07;1.90;;;;;;;18.96;87.14;100526.56;4985430;28;20481;-49
2021/06/11 04:41:26;;;;;;;0.50;0.47;;;;;;;19.56;83.16;100527.38;4981257;28;20457;-50
2021/06/11 04:43:56;;;;;;;0.40;0.20;;;;;;;19.39;84.06;100531.09;4982993;28;20505;-50
2021/06/11 04:46:23;;;;;;;0.50;0.30;;;;;;;19.75;83.06;100529.81;4992538;28;20525;-52
2021/06/11 04:48:50;;;;;;;0.50;0.30;;;;;;;20.08;81.29;100535.78;4993874;28;20450;-51
2021/06/11 04:51:17;;;;;;;0.40;0.20;;;;;;;20.39;80.38;100537.34;4980519;28;20457;-50
2021/06/11 04:53:44;;;;;;;0.40;0.20;;;;;;;20.48;79.73;100535.06;4993652;28;20826;-51
2021/06/11 04:56:12;;;;;;;0.40;0.20;;;;;;;20.36;79.99;100532.16;4978640;28;20447;-51
2021/06/11 04:58:41;;;;;;;0.40;0.20;;;;;;;20.54;79.72;100535.50;4987105;28;20520;-50
2021/06/11 05:01:09;;;;;;;0.50;0.30;;;;;;;20.90;79.08;100537.59;4987665;28;20458;-51
2021/06/11 05:03:37;;;;;;;0.40;0.20;;;;;;;20.95;78.15;100530.03;4987638;28;20449;-51
2021/06/11 05:06:04;;;;;;;0.50;0.30;;;;;;;21.07;77.69;100532.88;4987610;28;20921;-51
2021/06/11 05:08:31;;;;;;;0.50;0.30;;;;;;;21.18;77.47;100533.88;4987402;28;20469;-50
2021/06/11 05:10:59;;;;;;;0.40;0.20;;;;;;;21.57;76.60;100534.81;4987312;28;20878;-51
2021/06/11 05:13:26;;;;;;;0.50;0.30;;;;;;;21.65;75.64;100539.69;4987083;28;20520;-51
2021/06/11 05:15:52;;;;;;;0.83;0.83;;;;;;;21.14;77.78;100545.03;4981650;28;20851;-52
2021/06/11 05:18:28;;;;;;;0.50;0.30;;;;;;;21.43;77.05;100543.03;4980681;28;20470;-51
2021/06/11 05:20:54;;;;;;;0.47;0.30;;;;;;;21.48;76.90;100543.56;4992658;28;20504;-51
2021/06/11 05:23:21;;;;;;;0.50;0.40;;;;;;;21.10;78.01;100538.94;4980583;28;21023;-51
2021/06/11 05:25:49;;;;;;;0.50;0.20;;;;;;;21.53;77.13;100545.00;4990765;28;20493;-51
2021/06/11 05:28:17;;;;;;;1.40;0.70;;;;;;;21.70;77.77;100541.09;4984149;28;20464;-52
2021/06/11 05:30:44;;;;;;;0.40;0.30;;;;;;;22.01;76.28;100542.47;4993951;28;21022;-52
2021/06/11 05:33:11;;;;;;;0.50;0.20;;;;;;;22.25;76.02;100534.44;4990516;28;20453;-51
2021/06/11 05:35:37;;;;;;;0.40;0.20;;;;;;;22.37;74.15;100533.56;4983857;28;20454;-52
2021/06/11 05:38:06;;;;;;;0.40;0.20;;;;;;;22.60;72.16;100537.25;4978162;28;21062;-51
2021/06/11 05:40:34;;;;;;;0.70;0.63;;;;;;;23.11;70.90;100539.75;4983351;28;20873;-51
2021/06/11 05:43:02;;;;;;;0.40;0.20;;;;;;;23.39;68.99;100540.31;4986906;28;20450;-51
2021/06/11 05:45:30;;;;;;;0.50;0.30;;;;;;;23.09;70.62;100530.88;4984725;28;20549;-50
2021/06/11 05:47:58;;;;;;;0.50;0.20;;;;;;;23.58;68.49;100543.38;4980257;28;20547;-51
2021/06/11 05:50:26;;;;;;;0.70;0.67;;;;;;;23.64;68.55;100538.31;4992990;28;20476;-52
2021/06/11 05:52:54;;;;;;;0.50;0.40;;;;;;;23.37;69.19;100542.28;4980068;28;20508;-52
2021/06/11 05:55:21;;;;;;;0.63;0.63;;;;;;;22.75;71.66;100544.25;4983801;28;20982;-51
2021/06/11 05:57:48;;;;;;;0.80;0.80;;;;;;;22.91;72.52;100543.13;4980204;28;20527;-52
2021/06/11 06:00:16;;;;;;;0.50;0.20;;;;;;;23.94;69.21;100535.00;4993340;28;20508;-51
2021/06/11 06:02:42;;;;;;;1.17;1.07;;;;;;;23.85;68.92;100540.31;4980242;28;20507;-51
2021/06/11 06:05:10;;;;;;;0.50;0.30;;;;;;;23.44;69.52;100540.84;4980959;28;21017;-51
2021/06/11 06:07:38;;;;;;;0.50;0.20;;;;;;;23.46;69.70;100539.75;4991007;28;20477;-53
2021/06/11 06:10:05;;;;;;;0.50;0.30;;;;;;;23.80;70.08;100537.09;4980778;28;20512;-51
2021/06/11 06:12:32;;;;;;;0.80;0.50;;;;;;;23.91;69.45;100540.69;4992682;28;20449;-52
2021/06/11 06:14:59;;;;;;;17.23;3.20;;;;;;;23.61;69.53;100540.41;4980823;28;20456;-51
2021/06/11 06:17:27;;;;;;;0.97;0.97;;;;;;;24.12;68.49;100540.81;4992940;28;20902;-51
2021/06/11 06:19:53;;;;;;;0.50;0.30;;;;;;;24.07;68.24;100543.03;4993152;28;20472;-51
2021/06/11 06:22:37;;;;;;;0.50;0.20;;;;;;;23.82;69.98;100544.13;4984783;28;20450;-52
2021/06/11 06:25:05;;;;;;;0.50;0.40;;;;;;;24.03;69.13;100538.84;4986551;28;20457;-51
2021/06/11 06:27:34;;;;;;;0.50;0.27;;;;;;;24.27;67.72;100540.56;4973433;28;20478;-52
2021/06/11 06:30:00;;;;;;;28.33;1.73;;;;;;;24.01;68.56;100542.66;5002956;28;20442;-52
2021/06/11 06:32:29;;;;;;;0.50;0.30;;;;;;;24.02;68.65;100534.41;4986554;28;20453;-52
2021/06/11 06:34:57;;;;;;;0.50;0.20;;;;;;;23.70;70.56;100547.81;4983453;28;20507;-51
2021/06/11 06:37:24;;;;;;;0.40;0.30;;;;;;;24.06;69.50;100543.16;4986257;28;20544;-52
2021/06/11 06:39:52;;;;;;;0.87;0.87;;;;;;;23.68;69.15;100536.22;4993335;28;20454;-52
2021/06/11 06:42:19;;;;;;;0.50;0.30;;;;;;;23.87;68.94;100536.50;4985620;28;20500;-52
2021/06/11 06:44:46;;;;;;;0.50;0.50;;;;;;;23.99;67.58;100541.94;4994952;28;20512;-51
2021/06/11 06:47:12;;;;;;;0.73;0.67;;;;;;;24.30;65.86;100522.16;4985566;28;20548;-52
2021/06/11 06:49:39;;;;;;;1.13;1.13;;;;;;;23.80;67.20;100532.53;4993614;28;20529;-52
2021/06/11 06:52:07;;;;;;;0.60;0.57;;;;;;;24.28;65.86;100534.13;4985413;28;20450;-51
2021/06/11 06:54:34;;;;;;;2.50;2.30;;;;;;;23.84;66.94;100522.28;4990205;28;20450;-52
2021/06/11 06:57:02;;;;;;;0.50;0.30;;;;;;;24.51;64.26;100527.66;4981186;28;20517;-51
2021/06/11 06:59:28;;;;;;;0.70;0.60;;;;;;;24.55;64.28;100520.16;4995110;28;20508;-52
2021/06/11 07:01:57;;;;;;;0.50;0.20;;;;;;;24.74;63.19;100526.63;4984518;28;20513;-51
2021/06/11 07:04:24;;;;;;;0.50;0.30;;;;;;;24.55;62.94;100525.59;4995209;28;20480;-52
2021/06/11 07:06:51;;;;;;;0.50;0.30;;;;;;;24.63;64.58;100523.06;4996224;28;20555;-52
2021/06/11 07:09:20;;;;;;;0.50;0.30;;;;;;;24.74;64.61;100520.31;4983014;28;20577;-51
2021/06/11 07:11:48;;;;;;;2.00;1.90;;;;;;;25.20;64.06;100525.47;4996097;28;20527;-53
2021/06/11 07:14:16;;;;;;;0.50;0.30;;;;;;;24.99;65.38;100516.41;4976670;28;20574;-51
2021/06/11 07:16:43;;;;;;;0.50;0.20;;;;;;;24.56;65.15;100527.31;4989610;28;20469;-53
2021/06/11 07:19:11;;;;;;;0.50;0.27;;;;;;;25.38;63.04;100515.72;4983491;28;20453;-52
2021/06/11 07:21:38;;;;;;;0.50;0.30;;;;;;;25.02;63.28;100518.88;4981309;28;20454;-52
2021/06/11 07:24:06;;;;;;;0.60;0.60;;;;;;;25.64;61.91;100513.44;4989055;28;20458;-52
2021/06/11 07:26:32;;;;;;;1.07;1.07;;;;;;;25.96;61.00;100512.47;4989154;28;20656;-52
2021/06/11 07:28:59;;;;;;;1.13;1.13;;;;;;;25.35;61.73;100510.53;4993534;28;20536;-51
2021/06/11 07:31:27;;;;;;;1.03;1.03;;;;;;;25.60;61.55;100508.38;4986844;28;20508;-52
2021/06/11 07:33:53;;;;;;;0.63;0.63;;;;;;;25.72;62.49;100514.66;4986628;28;20454;-51
2021/06/11 07:36:20;;;;;;;0.50;0.30;;;;;;;25.89;61.49;100514.88;4988984;28;20517;-52
2021/06/11 07:38:47;;;;;;;0.80;0.80;;;;;;;26.21;59.90;100517.47;4985567;28;20492;-52
2021/06/11 07:41:13;;;;;;;0.57;0.37;;;;;;;26.38;59.55;100520.53;4982361;28;20436;-54
2021/06/11 07:43:41;;;;;;;0.50;0.30;;;;;;;26.55;58.43;100514.41;4995245;28;20503;-51
2021/06/11 07:46:08;;;;;;;0.50;0.30;;;;;;;26.64;58.65;100515.44;4982244;28;20496;-52
2021/06/11 07:48:34;;;;;;;0.50;0.30;;;;;;;26.26;58.44;100509.72;4995327;28;20503;-51
2021/06/11 07:51:01;;;;;;;0.50;0.30;;;;;;;26.29;59.01;100508.56;4982277;28;20453;-51
2021/06/11 07:53:28;;;;;;;0.50;0.30;;;;;;;26.84;58.47;100509.84;4985506;28;20454;-52
2021/06/11 07:55:55;;;;;;;0.60;0.50;;;;;;;26.50;59.58;100512.09;4988799;28;20995;-52
2021/06/11 07:58:22;;;;;;;0.50;0.30;;;;;;;26.45;61.38;100508.06;4985653;28;20481;-52
2021/06/11 08:00:48;;;;;;;0.50;0.30;;;;;;;26.82;60.39;100503.66;4982286;28;20515;-51
2021/06/11 08:03:16;;;;;;;0.50;0.40;;;;;;;26.29;60.74;100500.38;4995686;28;20971;-52
2021/06/11 08:05:42;;;;;;;0.60;0.40;;;;;;;26.17;62.29;100499.63;4982081;28;20492;-52
2021/06/11 08:08:09;;;;;;;0.50;0.37;;;;;;;26.07;62.19;100503.34;4995211;28;20536;-52
2021/06/11 08:10:36;;;;;;;0.50;0.30;;;;;;;26.40;60.54;100499.44;4981839;28;20449;-54
2021/06/11 08:13:06;;;;;;;0.50;0.40;;;;;;;26.31;60.00;100501.09;4983943;28;20462;-54
2021/06/11 08:15:33;;;;;;;0.67;0.67;;;;;;;26.72;58.54;100496.47;4989297;28;20460;-54
2021/06/11 08:18:01;;;;;;;0.50;0.30;;;;;;;26.33;60.27;100511.91;4986954;28;20543;-52
2021/06/11 08:20:28;;;;;;;2.10;0.50;;;;;;;27.36;56.75;100502.22;4981838;28;20822;-54
2021/06/11 08:22:55;;;;;;;0.50;0.30;;;;;;;27.18;55.11;100498.53;4983028;28;20489;-54
2021/06/11 08:25:26;;;;;;;1.00;0.47;;;;;;;27.38;55.68;100507.53;4993585;28;20869;-55
2021/06/11 08:27:56;;;;;;;0.50;0.30;;;;;;;27.20;57.24;100501.97;4980699;28;20513;-54
2021/06/11 08:30:24;;;;;;;0.50;0.43;;;;;;;26.78;59.17;100510.41;4975470;28;20446;-52
2021/06/11 08:32:52;;;;;;;0.50;0.30;;;;;;;26.26;56.00;100511.56;4991869;28;20428;-54
2021/06/11 08:35:19;;;;;;;0.90;0.90;;;;;;;27.17;54.79;100504.13;4982553;28;20450;-52
2021/06/11 08:37:46;;;;;;;0.50;0.40;;;;;;;26.60;55.37;100509.41;4981212;28;20514;-52
2021/06/11 08:40:15;;;;;;;0.63;0.63;;;;;;;27.37;54.35;100511.28;4987088;28;20533;-52
2021/06/11 08:42:44;;;;;;;1.17;1.07;;;;;;;27.54;51.28;100515.13;4988118;28;20461;-53
2021/06/11 08:45:11;;;;;;;0.43;0.20;;;;;;;27.50;52.75;100514.56;4983465;28;20530;-53
2021/06/11 08:47:43;;;;;;;0.50;0.43;;;;;;;27.15;52.42;100507.00;4981586;28;21045;-53
2021/06/11 08:50:11;;;;;;;0.50;0.30;;;;;;;27.76;52.43;100511.22;4984758;28;20525;-53
2021/06/11 08:52:37;;;;;;;0.50;0.30;;;;;;;27.78;52.74;100509.19;4990741;28;20805;-54
2021/06/11 08:55:05;;;;;;;0.50;0.27;;;;;;;27.67;51.87;100505.63;4984651;28;20505;-53
2021/06/11 08:57:31;;;;;;;0.50;0.30;;;;;;;27.91;51.95;100498.78;4991137;28;20975;-54
2021/06/11 08:59:58;;;;;;;0.60;0.60;;;;;;;28.09;50.89;100505.16;4994461;28;20454;-54
2021/06/11 09:02:25;;;;;;;0.50;0.30;;;;;;;28.11;50.92;100494.09;4994127;28;20482;-54
2021/06/11 09:04:54;;;;;;;0.50;0.30;;;;;;;27.65;52.10;100495.84;4984077;28;20511;-53
2021/06/11 09:07:28;;;;;;;0.50;0.30;;;;;;;28.13;51.33;100494.81;4991517;28;20579;-54
2021/06/11 09:10:02;;;;;;;0.50;0.30;;;;;;;27.94;51.29;100499.34;4994124;28;20830;-54
2021/06/11 09:12:35;;;;;;;0.50;0.30;;;;;;;27.45;50.79;100495.03;4979769;28;20423;-53
2021/06/11 09:15:13;;;;;;;0.50;0.40;;;;;;;28.22;48.99;100493.88;4993854;28;20540;-53
2021/06/11 09:17:50;;;;;;;0.50;0.30;;;;;;;28.37;49.76;100494.25;4993709;28;20453;-54
2021/06/11 09:20:41;;;;;;;0.80;0.80;;;;;;;28.16;50.82;100499.97;4981012;28;20457;-56
2021/06/11 09:23:08;;;;;;;0.50;0.30;;;;;;;28.11;48.39;100505.91;4993724;28;20450;-53
2021/06/11 09:25:49;;;;;;;0.40;0.30;;;;;;;27.92;48.23;100495.91;4986807;28;20452;-54
2021/06/11 09:28:22;;;;;;;2.00;0.60;;;;;;;28.39;47.92;100497.72;4992518;28;20981;-54
2021/06/11 09:30:56;;;;;;;0.77;0.77;;;;;;;28.79;47.96;100492.69;4996040;28;20445;-54
2021/06/11 09:33:24;;;;;;;0.60;0.53;;;;;;;28.81;46.18;100498.00;4980452;28;20516;-54
2021/06/11 09:35:59;;;;;;;1.37;0.83;;;;;;;29.16;46.81;100500.72;4980921;28;20940;-56
2021/06/11 09:38:28;;;;;;;0.50;0.30;;;;;;;29.50;44.61;100494.53;4993541;28;20473;-54
2021/06/11 09:40:57;;;;;;;0.50;0.30;;;;;;;29.45;45.71;100491.34;4980778;28;20492;-54
2021/06/11 09:43:29;;;;;;;1.23;0.90;;;;;;;29.36;44.71;100490.47;4974203;28;20513;-54
2021/06/11 09:46:04;;;;;;;0.67;0.67;;;;;;;29.56;44.41;100496.59;4987910;28;20453;-54
2021/06/11 09:48:49;;;;;;;0.50;0.30;;;;;;;29.56;46.04;100496.59;4984199;28;20459;-54
2021/06/11 09:51:17;;;;;;;0.50;0.30;;;;;;;29.44;44.34;100495.13;4990718;28;20920;-53
2021/06/11 09:53:45;;;;;;;0.50;0.20;;;;;;;29.00;46.79;100491.53;4979781;28;20454;-54
2021/06/11 09:56:26;;;;;;;0.60;0.30;;;;;;;29.76;43.67;100495.38;4979277;28;20445;-54
2021/06/11 09:58:56;;;;;;;0.50;0.30;;;;;;;29.24;44.45;100494.47;4991900;28;21001;-54
2021/06/11 10:01:25;;;;;;;0.60;0.60;;;;;;;29.18;45.11;100489.59;4981704;28;20449;-54
2021/06/11 10:03:54;;;;;;;0.50;0.30;;;;;;;29.46;44.66;100491.22;4976169;28;20454;-54
2021/06/11 10:06:22;;;;;;;0.40;0.30;;;;;;;29.93;43.31;100487.22;4982397;28;20544;-53
2021/06/11 10:08:50;;;;;;;0.50;0.43;;;;;;;29.54;43.03;100479.47;4993008;28;21004;-54
2021/06/11 10:11:21;;;;;;;0.50;0.30;;;;;;;29.88;43.88;100492.31;4992956;28;20457;-53
2021/06/11 10:13:49;;;;;;;0.50;0.50;;;;;;;30.12;43.98;100497.97;4991810;28;20470;-54
2021/06/11 10:16:20;;;;;;;0.50;0.30;;;;;;;29.34;44.22;100487.03;4992953;28;20446;-53
2021/06/11 10:18:48;;;;;;;0.50;0.30;;;;;;;28.94;45.11;100486.69;4992740;28;20989;-54
2021/06/11 10:21:16;;;;;;;0.50;0.40;;;;;;;29.30;47.21;100487.47;4993083;28;20453;-53
2021/06/11 10:23:43;;;;;;;0.50;0.50;;;;;;;29.60;44.98;100487.03;4992813;28;20809;-53
2021/06/11 10:26:12;;;;;;;0.73;0.73;;;;;;;29.06;46.20;100478.06;4992573;28;20511;-53
2021/06/11 10:28:49;;;;;;;0.50;0.30;;;;;;;29.28;45.62;100473.94;4998539;28;20452;-54
2021/06/11 10:31:20;;;;;;;0.50;0.30;;;;;;;29.10;46.99;100470.41;4997673;28;20465;-54
2021/06/11 10:33:50;;;;;;;0.60;0.53;;;;;;;28.89;46.83;100478.94;4980346;28;20447;-53
2021/06/11 10:36:38;;;;;;;0.50;0.30;;;;;;;29.12;46.54;100484.78;4992581;28;20466;-53
2021/06/11 10:39:26;;;;;;;0.50;0.30;;;;;;;29.52;46.41;100469.69;4991501;28;20479;-54
2021/06/11 10:41:52;;;;;;;0.70;0.60;;;;;;;29.81;45.15;100474.84;4973489;28;20500;-53
2021/06/11 10:44:38;;;;;;;0.97;0.97;;;;;;;29.35;45.77;100471.44;4986497;28;20453;-53
2021/06/11 10:47:34;;;;;;;0.50;0.30;;;;;;;29.72;46.27;100479.41;4981954;28;20544;-54
2021/06/11 10:50:07;;;;;;;0.63;0.50;;;;;;;29.97;45.53;100469.41;4980949;28;20827;-54
2021/06/11 10:52:44;;;;;;;0.50;0.40;;;;;;;29.61;46.69;100477.81;4992437;28;20445;-53
2021/06/11 10:55:13;;;;;;;0.60;0.60;;;;;;;30.15;44.79;100472.94;4982036;28;20450;-54
2021/06/11 10:57:41;;;;;;;0.50;0.30;;;;;;;29.96;45.83;100467.72;4990671;28;20498;-54
2021/06/11 11:00:22;;;;;;;0.50;0.30;;;;;;;30.47;44.66;100463.97;4992756;28;20453;-54
2021/06/11 11:02:51;;;;;;;0.50;0.30;;;;;;;30.34;43.88;100466.34;4985683;28;20489;-53
2021/06/11 11:05:32;;;;;;;0.47;0.30;;;;;;;30.47;44.59;100463.97;4986845;28;20428;-54
2021/06/11 11:08:01;;;;;;;0.50;0.33;;;;;;;30.46;44.19;100469.63;4982205;28;20492;-54
2021/06/11 11:10:51;;;;;;;0.50;0.30;;;;;;;29.64;45.92;100463.78;4988808;28;20449;-55
2021/06/11 11:13:24;;;;;;;0.50;0.30;;;;;;;30.41;44.48;100467.38;4980006;28;20464;-55
2021/06/11 11:15:55;;;;;;;0.90;0.90;;;;;;;30.00;45.36;100449.88;4982393;28;20449;-55
2021/06/11 11:18:34;;;;;;;0.50;0.30;;;;;;;29.64;45.31;100452.81;4995815;28;20984;-56
2021/06/11 11:21:35;;;;;;;0.80;0.80;;;;;;;30.56;44.07;100459.34;4986885;28;20469;-53
2021/06/11 11:24:10;;;;;;;0.50;0.40;;;;;;;30.80;43.20;100450.31;4984200;28;20423;-55
2021/06/11 11:26:45;;;;;;;0.50;0.30;;;;;;;29.95;45.03;100444.91;4983254;28;21033;-55
2021/06/11 11:29:14;;;;;;;0.50;0.30;;;;;;;30.56;45.29;100445.63;5006627;28;20797;-56
2021/06/11 11:31:44;;;;;;;1.47;1.43;;;;;;;30.96;44.49;100444.81;4997935;28;20449;-56
2021/06/11 11:34:11;;;;;;;0.50;0.50;;;;;;;31.03;43.84;100440.38;4983375;28;20433;-56
2021/06/11 11:36:38;;;;;;;0.50;0.30;;;;;;;30.22;46.26;100441.09;4989522;28;20512;-55